createdAt,value
2022-12-01T00:00:22.528Z,4.65
2022-12-01T00:02:50.098Z,4.99
2022-12-01T00:05:17.819Z,5.00
2022-12-01T00:07:49.383Z,5.02
2022-12-01T00:10:28.513Z,5.06
2022-12-01T00:12:57.367Z,5.09
2022-12-01T00:15:27.130Z,5.12
2022-12-01T00:17:54.736Z,5.12
2022-12-01T00:20:22.394Z,5.15
2022-12-01T00:22:51.347Z,5.14
2022-12-01T00:25:20.199Z,5.08
2022-12-01T00:27:48.908Z,5.20
2022-12-01T00:30:17.685Z,5.24
2022-12-01T00:32:45.534Z,5.22
2022-12-01T00:35:14.587Z,5.15
2022-12-01T00:37:42.549Z,5.21
2022-12-01T00:40:12.672Z,5.25
2022-12-01T00:42:40.220Z,5.25
2022-12-01T00:45:08.703Z,5.32
2022-12-01T00:47:36.206Z,5.35
2022-12-01T00:50:04.067Z,5.36
2022-12-01T00:52:31.649Z,5.32
2022-12-01T00:54:59.213Z,5.32
2022-12-01T00:57:28.210Z,5.38
2022-12-01T00:59:55.749Z,5.38
2022-12-01T01:02:23.401Z,5.34
2022-12-01T01:04:51.045Z,5.38
2022-12-01T01:07:18.683Z,5.39
2022-12-01T01:09:46.412Z,5.39
2022-12-01T01:12:14.281Z,5.32
2022-12-01T01:14:43.304Z,5.47
2022-12-01T01:17:11.018Z,5.32
2022-12-01T01:19:38.616Z,5.40
2022-12-01T01:22:06.245Z,5.44
2022-12-01T01:24:33.870Z,5.42
2022-12-01T01:27:01.560Z,5.39
2022-12-01T01:29:29.150Z,5.47
2022-12-01T01:31:58.146Z,5.47
2022-12-01T01:34:25.736Z,5.52
2022-12-01T01:36:53.310Z,5.55
2022-12-01T01:39:20.882Z,5.57
2022-12-01T01:41:48.619Z,5.54
2022-12-01T01:44:51.457Z,5.59
2022-12-01T01:47:24.469Z,5.60
2022-12-01T01:49:52.874Z,5.46
2022-12-01T01:52:20.725Z,5.57
2022-12-01T01:54:51.971Z,5.55
2022-12-01T01:57:27.651Z,5.55
2022-12-01T02:00:00.129Z,5.59
2022-12-01T02:02:29.167Z,5.53
2022-12-01T02:05:01.655Z,5.51
2022-12-01T02:07:29.647Z,5.49
2022-12-01T02:09:57.607Z,5.35
2022-12-01T02:12:40.704Z,5.35
2022-12-01T02:15:19.587Z,5.39
2022-12-01T02:17:58.977Z,5.35
2022-12-01T02:20:53.418Z,5.39
2022-12-01T02:23:54.301Z,5.34
2022-12-01T02:26:36.378Z,5.36
2022-12-01T02:29:39.714Z,5.35
2022-12-01T02:32:16.589Z,5.23
2022-12-01T02:34:47.323Z,5.25
2022-12-01T02:37:24.773Z,5.20
2022-12-01T02:39:59.801Z,5.26
2022-12-01T02:42:54.207Z,5.31
2022-12-01T02:45:29.571Z,5.29
2022-12-01T02:48:02.530Z,5.26
2022-12-01T02:50:32.531Z,5.28
2022-12-01T02:53:02.189Z,5.18
2022-12-01T02:55:29.809Z,5.27
2022-12-01T02:57:57.349Z,5.23
2022-12-01T03:00:25.085Z,5.28
2022-12-01T03:03:08.990Z,5.26
2022-12-01T03:05:46.914Z,5.29
2022-12-01T03:08:23.036Z,5.32
2022-12-01T03:10:54.533Z,5.34
2022-12-01T03:13:34.828Z,5.32
2022-12-01T03:16:08.200Z,5.31
2022-12-01T03:18:41.137Z,5.32
2022-12-01T03:21:13.332Z,5.24
2022-12-01T03:23:43.609Z,5.23
2022-12-01T03:26:16.224Z,5.24
2022-12-01T03:28:49.824Z,5.28
2022-12-01T03:31:21.685Z,5.24
2022-12-01T03:33:55.603Z,5.23
2022-12-01T03:36:28.548Z,5.21
2022-12-01T03:39:00.856Z,5.19
2022-12-01T03:41:32.908Z,5.16
2022-12-01T03:44:06.986Z,5.02
2022-12-01T03:46:42.501Z,5.10
2022-12-01T03:49:11.870Z,5.10
2022-12-01T03:51:49.375Z,5.07
2022-12-01T03:54:21.069Z,5.08
2022-12-01T03:56:53.062Z,5.08
2022-12-01T03:59:23.484Z,5.07
2022-12-01T04:01:51.551Z,4.96
2022-12-01T04:04:20.579Z,5.09
2022-12-01T04:06:51.147Z,5.09
2022-12-01T04:09:18.741Z,5.11
2022-12-01T04:12:03.808Z,5.11
2022-12-01T04:14:31.492Z,5.04
2022-12-01T04:16:59.250Z,5.12
2022-12-01T04:19:28.248Z,5.04
2022-12-01T04:21:55.755Z,5.06
2022-12-01T04:24:23.323Z,5.07
2022-12-01T04:26:50.806Z,5.01
2022-12-01T04:29:18.441Z,4.96
2022-12-01T04:31:46.009Z,4.93
2022-12-01T04:34:13.619Z,4.93
2022-12-01T04:36:42.554Z,4.86
2022-12-01T04:39:10.136Z,4.84
2022-12-01T04:41:37.706Z,4.79
2022-12-01T04:44:05.543Z,4.68
2022-12-01T04:46:33.310Z,4.65
2022-12-01T04:49:01.025Z,4.59
2022-12-01T04:51:28.669Z,4.54
2022-12-01T04:53:57.600Z,4.46
2022-12-01T04:56:25.315Z,4.40
2022-12-01T04:58:52.970Z,4.45
2022-12-01T05:01:20.640Z,4.44
2022-12-01T05:03:50.269Z,4.39
2022-12-01T05:06:20.096Z,4.32
2022-12-01T05:08:48.038Z,4.27
2022-12-01T05:11:17.643Z,4.26
2022-12-01T05:13:47.829Z,4.22
2022-12-01T05:16:17.991Z,4.18
2022-12-01T05:18:49.142Z,4.16
2022-12-01T05:21:16.270Z,4.10
2022-12-01T05:23:44.584Z,4.20
2022-12-01T05:26:13.096Z,4.16
2022-12-01T05:28:42.315Z,4.19
2022-12-01T05:31:09.879Z,4.15
2022-12-01T05:33:37.490Z,4.06
2022-12-01T05:36:05.627Z,4.06
2022-12-01T05:38:33.249Z,4.02
2022-12-01T05:41:00.823Z,4.05
2022-12-01T05:43:29.542Z,4.00
2022-12-01T05:45:58.649Z,4.01
2022-12-01T05:48:26.799Z,3.99
2022-12-01T05:50:54.501Z,3.96
2022-12-01T05:53:22.404Z,3.94
2022-12-01T05:55:53.090Z,3.82
2022-12-01T05:58:20.780Z,3.95
2022-12-01T06:00:48.467Z,3.95
2022-12-01T06:03:17.444Z,3.99
2022-12-01T06:05:45.140Z,4.05
2022-12-01T06:08:12.719Z,4.05
2022-12-01T06:10:40.301Z,4.13
2022-12-01T06:13:08.493Z,4.13
2022-12-01T06:15:36.034Z,4.22
2022-12-01T06:18:03.657Z,4.09
2022-12-01T06:20:32.796Z,4.07
2022-12-01T06:23:00.594Z,4.13
2022-12-01T06:25:28.154Z,4.12
2022-12-01T06:27:57.309Z,4.10
2022-12-01T06:30:25.244Z,4.01
2022-12-01T06:32:52.951Z,3.99
2022-12-01T06:35:21.076Z,4.00
2022-12-01T06:37:50.003Z,3.94
2022-12-01T06:40:17.674Z,3.90
2022-12-01T06:42:45.397Z,3.85
2022-12-01T06:45:13.477Z,3.86
2022-12-01T06:47:41.296Z,3.78
2022-12-01T06:50:10.127Z,3.79
2022-12-01T06:52:37.594Z,3.82
2022-12-01T06:55:07.610Z,3.81
2022-12-01T06:57:35.563Z,3.78
2022-12-01T07:00:05.177Z,3.73
2022-12-01T07:02:33.321Z,3.71
2022-12-01T07:05:01.020Z,3.69
2022-12-01T07:07:28.825Z,3.67
2022-12-01T07:09:56.558Z,3.68
2022-12-01T07:12:25.474Z,3.70
2022-12-01T07:14:53.081Z,3.70
2022-12-01T07:17:20.652Z,3.66
2022-12-01T07:19:48.553Z,3.66
2022-12-01T07:22:16.875Z,3.65
2022-12-01T07:24:44.550Z,3.59
2022-12-01T07:27:12.147Z,3.56
2022-12-01T07:29:41.077Z,3.54
2022-12-01T07:32:08.832Z,3.52
2022-12-01T07:34:36.400Z,3.54
2022-12-01T07:37:04.028Z,3.59
2022-12-01T07:39:31.583Z,3.57
2022-12-01T07:41:59.204Z,3.57
2022-12-01T07:44:26.817Z,3.60
2022-12-01T07:46:55.862Z,3.58
2022-12-01T07:49:23.460Z,3.58
2022-12-01T07:51:51.047Z,3.52
2022-12-01T07:54:20.907Z,3.52
2022-12-01T07:56:48.498Z,3.53
2022-12-01T07:59:16.034Z,3.52
2022-12-01T08:01:44.886Z,3.54
2022-12-01T08:04:14.024Z,3.56
2022-12-01T08:06:41.740Z,3.59
2022-12-01T08:09:09.261Z,3.63
2022-12-01T08:11:36.797Z,3.76
2022-12-01T08:14:05.468Z,3.86
2022-12-01T08:16:33.070Z,3.95
2022-12-01T08:19:00.684Z,4.09
2022-12-01T08:21:29.759Z,4.18
2022-12-01T08:23:58.363Z,4.15
2022-12-01T08:26:27.519Z,4.23
2022-12-01T08:28:55.309Z,4.32
2022-12-01T08:31:25.323Z,4.38
2022-12-01T08:33:53.432Z,4.44
2022-12-01T08:36:22.236Z,4.47
2022-12-01T08:38:53.109Z,4.52
2022-12-01T08:41:21.422Z,4.61
2022-12-01T08:43:58.072Z,4.68
2022-12-01T08:46:27.048Z,4.64
2022-12-01T08:48:57.126Z,4.77
2022-12-01T08:51:25.025Z,4.75
2022-12-01T08:53:54.086Z,4.81
2022-12-01T08:56:24.064Z,4.86
2022-12-01T08:58:51.880Z,4.92
2022-12-01T09:01:20.333Z,4.96
2022-12-01T09:03:48.288Z,4.98
2022-12-01T09:06:17.657Z,4.96
2022-12-01T09:08:45.734Z,5.00
2022-12-01T09:11:17.199Z,4.97
2022-12-01T09:13:49.862Z,4.96
2022-12-01T09:16:20.769Z,4.86
2022-12-01T09:18:48.878Z,4.89
2022-12-01T09:21:18.474Z,4.93
2022-12-01T09:23:46.613Z,4.95
2022-12-01T09:26:18.557Z,4.97
2022-12-01T09:28:46.766Z,4.93
2022-12-01T09:31:16.241Z,4.98
2022-12-01T09:33:44.013Z,5.00
2022-12-01T09:36:12.284Z,5.03
2022-12-01T09:38:40.752Z,5.00
2022-12-01T09:41:24.175Z,5.03
2022-12-01T09:43:58.864Z,4.98
2022-12-01T09:46:31.337Z,5.07
2022-12-01T09:49:02.577Z,5.18
2022-12-01T09:51:34.683Z,5.03
2022-12-01T09:54:02.890Z,5.09
2022-12-01T09:56:33.098Z,5.15
2022-12-01T09:59:07.048Z,5.29
2022-12-01T10:01:38.235Z,5.31
2022-12-01T10:04:11.335Z,5.31
2022-12-01T10:06:42.495Z,5.32
2022-12-01T10:09:21.871Z,5.28
2022-12-01T10:11:52.754Z,5.46
2022-12-01T10:14:22.186Z,5.49
2022-12-01T10:17:00.785Z,5.45
2022-12-01T10:19:35.309Z,5.58
2022-12-01T10:22:26.003Z,5.60
2022-12-01T10:24:57.010Z,5.69
2022-12-01T10:27:39.690Z,5.74
2022-12-01T10:30:13.703Z,5.83
2022-12-01T10:32:51.076Z,5.97
2022-12-01T10:35:21.563Z,6.08
2022-12-01T10:37:54.851Z,6.02
2022-12-01T10:40:23.713Z,6.08
2022-12-01T10:42:51.712Z,6.06
2022-12-01T10:45:24.269Z,6.09
2022-12-01T10:48:13.074Z,6.18
2022-12-01T10:50:40.974Z,6.29
2022-12-01T10:53:26.775Z,6.39
2022-12-01T10:56:01.855Z,6.45
2022-12-01T10:58:29.677Z,6.37
2022-12-01T11:01:00.934Z,6.32
2022-12-01T11:03:31.373Z,6.42
2022-12-01T11:06:01.284Z,6.44
2022-12-01T11:08:37.177Z,6.36
2022-12-01T11:11:05.601Z,6.44
2022-12-01T11:13:36.370Z,6.43
2022-12-01T11:16:07.911Z,6.58
2022-12-01T11:18:37.547Z,6.72
2022-12-01T11:21:09.853Z,6.67
2022-12-01T11:23:39.351Z,6.45
2022-12-01T11:26:12.553Z,6.71
2022-12-01T11:28:44.637Z,6.68
2022-12-01T11:31:13.628Z,6.63
2022-12-01T11:33:48.162Z,6.69
2022-12-01T11:36:26.434Z,6.70
2022-12-01T11:38:58.675Z,6.88
2022-12-01T11:41:31.441Z,6.95
2022-12-01T11:44:03.928Z,6.73
2022-12-01T11:46:36.966Z,6.90
2022-12-01T11:49:04.827Z,7.01
2022-12-01T11:51:37.459Z,6.86
2022-12-01T11:54:15.752Z,6.74
2022-12-01T11:56:45.053Z,6.66
2022-12-01T11:59:16.660Z,6.62
2022-12-01T12:02:11.502Z,6.77
2022-12-01T12:04:55.456Z,6.88
2022-12-01T12:07:32.282Z,6.88
2022-12-01T12:10:14.118Z,6.91
2022-12-01T12:12:57.204Z,6.92
2022-12-01T12:15:35.056Z,6.91
2022-12-01T12:18:28.261Z,6.77
2022-12-01T12:21:08.516Z,6.66
2022-12-01T12:23:51.099Z,6.75
2022-12-01T12:26:22.872Z,6.79
2022-12-01T12:29:14.032Z,6.78
2022-12-01T12:31:51.531Z,6.81
2022-12-01T12:34:30.195Z,6.88
2022-12-01T12:37:11.318Z,6.59
2022-12-01T12:40:04.939Z,6.79
2022-12-01T12:42:44.558Z,6.70
2022-12-01T12:45:27.502Z,6.64
2022-12-01T12:48:24.446Z,6.76
2022-12-01T12:51:02.378Z,6.85
2022-12-01T12:53:37.561Z,6.81
2022-12-01T12:56:09.690Z,6.75
2022-12-01T12:58:42.172Z,6.72
2022-12-01T13:01:14.572Z,6.66
2022-12-01T13:03:50.156Z,6.76
2022-12-01T13:06:29.059Z,6.84
2022-12-01T13:09:02.993Z,6.86
2022-12-01T13:11:33.829Z,6.95
2022-12-01T13:14:06.547Z,7.04
2022-12-01T13:16:37.001Z,7.02
2022-12-01T13:19:11.575Z,6.95
2022-12-01T13:21:44.234Z,7.22
2022-12-01T13:24:19.839Z,7.27
2022-12-01T13:26:55.475Z,7.22
2022-12-01T13:29:25.908Z,7.30
2022-12-01T13:31:55.401Z,7.15
2022-12-01T13:34:26.847Z,7.09
2022-12-01T13:36:57.111Z,7.09
2022-12-01T13:39:26.505Z,7.04
2022-12-01T13:42:03.637Z,6.84
2022-12-01T13:44:34.690Z,6.77
2022-12-01T13:47:06.321Z,6.82
2022-12-01T13:49:39.709Z,6.81
2022-12-01T13:52:29.575Z,6.77
2022-12-01T13:55:04.329Z,6.98
2022-12-01T13:57:33.832Z,7.08
2022-12-01T14:00:23.853Z,7.06
2022-12-01T14:03:24.808Z,6.99
2022-12-01T14:05:57.859Z,6.71
2022-12-01T14:08:29.277Z,6.69
2022-12-01T14:10:59.589Z,6.76
2022-12-01T14:13:29.079Z,6.52
2022-12-01T14:15:58.999Z,6.46
2022-12-01T14:18:37.810Z,6.37
2022-12-01T14:21:07.130Z,6.36
2022-12-01T14:23:37.744Z,6.29
2022-12-01T14:26:13.448Z,6.21
2022-12-01T14:29:24.490Z,6.23
2022-12-01T14:32:25.251Z,6.18
2022-12-01T14:34:56.939Z,6.15
2022-12-01T14:37:28.460Z,6.03
2022-12-01T14:40:03.940Z,6.05
2022-12-01T14:42:53.518Z,6.12
2022-12-01T14:45:26.112Z,6.03
2022-12-01T14:48:00.733Z,5.97
2022-12-01T14:50:35.411Z,6.00
2022-12-01T14:53:08.975Z,5.99
2022-12-01T14:55:42.122Z,5.97
2022-12-01T14:58:16.143Z,5.91
2022-12-01T15:00:57.364Z,5.75
2022-12-01T15:03:30.494Z,5.74
2022-12-01T15:05:59.533Z,5.75
2022-12-01T15:08:58.337Z,5.70
2022-12-01T15:11:25.200Z,5.65
2022-12-01T15:13:54.295Z,5.55
2022-12-01T15:16:23.791Z,5.59
2022-12-01T15:18:52.033Z,5.53
2022-12-01T15:21:21.677Z,5.51
2022-12-01T15:24:00.302Z,5.47
2022-12-01T15:26:31.748Z,5.37
2022-12-01T15:29:17.577Z,5.31
2022-12-01T15:31:47.966Z,5.24
2022-12-01T15:34:18.348Z,5.28
2022-12-01T15:36:46.485Z,5.29
2022-12-01T15:39:17.472Z,5.16
2022-12-01T15:41:48.918Z,5.16
2022-12-01T15:44:22.275Z,5.11
2022-12-01T15:46:49.927Z,5.08
2022-12-01T15:49:19.573Z,5.00
2022-12-01T15:51:48.976Z,4.96
2022-12-01T15:54:21.534Z,4.83
2022-12-01T15:56:54.780Z,4.86
2022-12-01T15:59:29.611Z,4.82
2022-12-01T16:01:57.869Z,4.79
2022-12-01T16:04:27.673Z,4.65
2022-12-01T16:06:59.193Z,4.74
2022-12-01T16:09:33.161Z,4.66
2022-12-01T16:12:23.674Z,4.63
2022-12-01T16:14:56.521Z,4.60
2022-12-01T16:17:25.215Z,4.55
2022-12-01T16:20:22.837Z,4.27
2022-12-01T16:22:53.497Z,4.51
2022-12-01T16:25:31.036Z,4.48
2022-12-01T16:28:00.520Z,4.44
2022-12-01T16:30:34.940Z,4.37
2022-12-01T16:33:05.589Z,4.31
2022-12-01T16:35:34.804Z,4.26
2022-12-01T16:38:11.822Z,4.25
2022-12-01T16:40:41.798Z,4.21
2022-12-01T16:43:14.941Z,4.19
2022-12-01T16:45:42.710Z,4.19
2022-12-01T16:48:10.863Z,4.05
2022-12-01T16:50:39.525Z,4.14
2022-12-01T16:53:07.123Z,4.09
2022-12-01T16:55:39.068Z,4.07
2022-12-01T16:58:06.832Z,4.07
2022-12-01T17:00:35.964Z,4.03
2022-12-01T17:03:04.312Z,4.03
2022-12-01T17:05:32.111Z,4.00
2022-12-01T17:07:59.838Z,3.98
2022-12-01T17:10:27.488Z,3.94
2022-12-01T17:12:55.144Z,3.95
2022-12-01T17:15:22.986Z,3.92
2022-12-01T17:17:52.253Z,3.92
2022-12-01T17:20:19.893Z,3.89
2022-12-01T17:22:47.582Z,3.87
2022-12-01T17:25:15.210Z,3.80
2022-12-01T17:27:43.892Z,3.82
2022-12-01T17:30:12.643Z,3.80
2022-12-01T17:32:40.216Z,3.79
2022-12-01T17:35:10.316Z,3.79
2022-12-01T17:37:37.869Z,3.77
2022-12-01T17:40:07.058Z,3.76
2022-12-01T17:42:34.896Z,3.66
2022-12-01T17:45:03.115Z,3.73
2022-12-01T17:47:30.835Z,3.68
2022-12-01T17:49:58.421Z,3.66
2022-12-01T17:52:28.693Z,3.66
2022-12-01T17:54:56.611Z,3.66
2022-12-01T17:57:24.207Z,3.61
2022-12-01T17:59:51.925Z,3.58
2022-12-01T18:02:19.662Z,3.52
2022-12-01T18:04:47.363Z,3.51
2022-12-01T18:07:14.952Z,3.53
2022-12-01T18:09:43.867Z,3.50
2022-12-01T18:12:11.821Z,3.48
2022-12-01T18:14:40.635Z,3.45
2022-12-01T18:17:08.295Z,3.46
2022-12-01T18:19:36.121Z,3.44
2022-12-01T18:22:03.801Z,3.42
2022-12-01T18:24:31.442Z,3.34
2022-12-01T18:27:00.453Z,3.35
2022-12-01T18:29:28.817Z,3.31
2022-12-01T18:31:57.119Z,3.35
2022-12-01T18:34:24.849Z,3.36
2022-12-01T18:36:52.447Z,3.34
2022-12-01T18:39:20.766Z,3.34
2022-12-01T18:41:48.488Z,3.29
2022-12-01T18:44:17.446Z,3.29
2022-12-01T18:46:45.316Z,3.24
2022-12-01T18:49:13.645Z,3.21
2022-12-01T18:51:41.340Z,3.20
2022-12-01T18:54:12.695Z,3.18
2022-12-01T18:56:41.169Z,3.15
2022-12-01T18:59:12.292Z,3.15
2022-12-01T19:01:45.902Z,3.10
2022-12-01T19:04:16.474Z,3.06
2022-12-01T19:06:46.078Z,3.04
2022-12-01T19:09:16.165Z,3.05
2022-12-01T19:11:45.131Z,2.99
2022-12-01T19:14:17.060Z,2.92
2022-12-01T19:16:47.652Z,2.92
2022-12-01T19:19:16.690Z,2.95
2022-12-01T19:21:45.838Z,2.95
2022-12-01T19:24:15.159Z,2.93
2022-12-01T19:26:43.185Z,2.95
2022-12-01T19:29:11.023Z,2.88
2022-12-01T19:31:38.763Z,2.93
2022-12-01T19:34:08.157Z,2.88
2022-12-01T19:36:35.806Z,2.82
2022-12-01T19:39:06.083Z,2.66
2022-12-01T19:41:35.203Z,2.81
2022-12-01T19:44:02.780Z,2.79
2022-12-01T19:46:30.370Z,2.75
2022-12-01T19:49:00.285Z,2.76
2022-12-01T19:51:31.600Z,2.83
2022-12-01T19:53:59.297Z,2.84
2022-12-01T19:56:27.316Z,2.81
2022-12-01T19:58:55.591Z,2.94
2022-12-01T20:01:23.493Z,2.97
2022-12-01T20:03:52.863Z,2.96
2022-12-01T20:06:22.267Z,3.03
2022-12-01T20:08:51.612Z,3.09
2022-12-01T20:11:19.949Z,3.08
2022-12-01T20:13:48.345Z,2.99
2022-12-01T20:16:17.987Z,3.19
2022-12-01T20:18:46.414Z,3.24
2022-12-01T20:21:17.216Z,3.30
2022-12-01T20:23:46.374Z,3.31
2022-12-01T20:26:16.607Z,3.33
2022-12-01T20:28:46.135Z,3.29
2022-12-01T20:31:16.584Z,3.39
2022-12-01T20:33:44.782Z,3.42
2022-12-01T20:36:12.569Z,3.42
2022-12-01T20:38:40.260Z,3.46
2022-12-01T20:41:08.418Z,3.52
2022-12-01T20:43:37.421Z,3.52
2022-12-01T20:46:05.712Z,3.52
2022-12-01T20:48:34.785Z,3.54
2022-12-01T20:51:03.045Z,3.59
2022-12-01T20:53:31.046Z,3.60
2022-12-01T20:56:03.208Z,3.60
2022-12-01T20:58:34.599Z,3.63
2022-12-01T21:01:10.245Z,3.64
2022-12-01T21:03:39.197Z,3.69
2022-12-01T21:06:07.041Z,3.69
2022-12-01T21:08:35.265Z,3.68
2022-12-01T21:11:06.548Z,3.69
2022-12-01T21:13:39.464Z,3.64
2022-12-01T21:16:14.468Z,3.72
2022-12-01T21:18:48.660Z,3.77
2022-12-01T21:21:23.571Z,3.80
2022-12-01T21:24:09.477Z,3.84
2022-12-01T21:26:38.378Z,3.87
2022-12-01T21:29:15.511Z,3.90
2022-12-01T21:31:44.662Z,3.91
2022-12-01T21:34:18.705Z,3.94
2022-12-01T21:36:47.821Z,3.91
2022-12-01T21:39:17.276Z,3.95
2022-12-01T21:41:45.062Z,4.00
2022-12-01T21:44:15.547Z,4.02
2022-12-01T21:46:45.500Z,4.06
2022-12-01T21:49:18.534Z,4.07
2022-12-01T21:51:47.814Z,4.01
2022-12-01T21:54:19.846Z,4.12
2022-12-01T21:56:48.615Z,4.16
2022-12-01T21:59:19.585Z,4.14
2022-12-01T22:01:53.068Z,4.17
2022-12-01T22:04:23.273Z,4.16
2022-12-01T22:06:53.709Z,4.19
2022-12-01T22:09:25.264Z,4.21
2022-12-01T22:11:55.486Z,4.19
2022-12-01T22:14:24.874Z,4.24
2022-12-01T22:16:57.513Z,4.28
2022-12-01T22:19:31.550Z,4.28
2022-12-01T22:22:02.618Z,4.29
2022-12-01T22:24:49.430Z,4.30
2022-12-01T22:27:28.979Z,4.30
2022-12-01T22:30:02.616Z,4.32
2022-12-01T22:32:40.196Z,4.30
2022-12-01T22:35:21.398Z,4.33
2022-12-01T22:37:50.469Z,4.37
2022-12-01T22:40:39.869Z,4.36
2022-12-01T22:43:33.588Z,4.40
2022-12-01T22:46:17.322Z,4.44
2022-12-01T22:48:48.437Z,4.41
2022-12-01T22:51:28.652Z,4.42
2022-12-01T22:54:00.843Z,4.41
2022-12-01T22:56:31.664Z,4.41
2022-12-01T22:58:59.394Z,4.41
2022-12-01T23:01:30.146Z,4.40
2022-12-01T23:04:15.647Z,4.30
2022-12-01T23:07:02.904Z,4.40
2022-12-01T23:09:37.222Z,4.44
2022-12-01T23:12:25.501Z,4.43
2022-12-01T23:14:55.525Z,4.42
2022-12-01T23:17:26.258Z,4.43
2022-12-01T23:20:03.535Z,4.45
2022-12-01T23:22:31.204Z,4.46
2022-12-01T23:24:58.896Z,4.45
2022-12-01T23:27:26.520Z,4.43
2022-12-01T23:29:55.062Z,4.44
2022-12-01T23:32:22.626Z,4.47
2022-12-01T23:34:51.945Z,4.47
2022-12-01T23:37:32.967Z,4.47
2022-12-01T23:40:01.378Z,4.46
2022-12-01T23:42:29.015Z,4.51
2022-12-01T23:44:56.726Z,4.49
2022-12-01T23:47:27.918Z,4.49
2022-12-01T23:50:00.747Z,4.54
2022-12-01T23:52:34.910Z,4.52
2022-12-01T23:55:08.754Z,4.43
2022-12-01T23:57:38.632Z,4.45
